Portage, Pennsylvania
Current Conditions -  °F | °C
As of 1:54 PM on Friday 31 Oct 2014 (Local Time) from KJST Reporting Station
Overcast Overcast  
Wind Chill: 43°   Ceiling: 2500
Heat Index: 43°   Visibility: 10mi
Dew Point: 33°   Wind: 3mph
Humidity: 68%   Direction: 140°SE
Pressure: 29.85"   Gusts: NA
Location:  40.39°N, 78.67°W
Report Text: KJST 311754Z AUTO 14003KT 10SM BKN025 OVC036 06/01 A2985 RMK AO2 SLP120 T00610006 10061 20044 56022
Loading
Personal Weather Stations






























Interactive Weather Map
Tropical Storm Tracking
New forecast layout! Learn more

10-Day Weather Forecast

Advertisements
Track Severe Weather on mobile